Latest Weather Observations for Knuckey Lagoon

IDD60801

Issued at 3:31 pm CST Saturday 28 January 2023 (issued every 10 minutes, with the page automatically refreshed every 10 minutes)

About weather observations | Map of weather stations | Latest weather observations for NT | Other Formats
Station Details ID: 014988 Name: KNUCKEY LAGOON Lat: -12.44 Lon: 130.96 Height: 31.63 m
Data from the previous 72 hours. | See also: Recent months for locations in Northern Territory
Date/Time
CST
Temp
°C
App
Temp
°C
Dew
Point
°C
Rel
Hum
%
Delta-T
°C
Wind Press
QNH
hPa
Press
MSL
hPa
Rain since
9am
mm
Dir  Spd
km/h
Gust
km/h
Spd
kts
Gust
kts
28/03:30pm 30.9 33.7 25.3 72 4.0 WNW 20 28 11 15 1003.1 - 0.0
28/03:00pm 32.2 35.0 25.8 69 4.6 NW 22 32 12 17 1002.8 - 0.0
28/02:30pm 33.0 36.5 24.2 60 6.2 NW 13 19 7 10 1003.5 - 0.0
28/02:00pm 31.3 34.1 24.9 69 4.5 NW 19 26 10 14 1004.0 - 0.0
28/01:30pm 32.7 37.3 26.0 68 4.8 W 13 19 7 10 1004.7 - 0.0
28/01:00pm 32.6 37.1 25.2 65 5.2 W 11 17 6 9 1005.2 - 0.0
28/12:30pm 31.9 36.7 24.5 65 5.2 SW 7 13 4 7 1005.9 - 0.0
28/12:00pm 31.2 35.3 24.6 68 4.6 W 11 15 6 8 1006.4 - 0.0
28/11:30am 31.2 36.0 25.1 70 4.3 WSW 9 17 5 9 1006.7 - 0.0
28/11:00am 31.0 35.8 25.1 71 4.2 WSW 9 19 5 10 1006.7 - 0.0
28/10:30am 30.6 35.6 25.4 74 3.7 WSW 9 13 5 7 1006.8 - 0.0
28/10:00am 30.3 35.4 25.6 76 3.3 WSW 9 15 5 8 1007.0 - 0.0
28/09:30am 29.5 35.1 25.7 80 2.7 SW 7 11 4 6 1007.0 - 0.0
28/09:00am 29.3 35.5 26.7 86 1.9 SW 7 9 4 5 1006.8 - 0.6
28/08:30am 28.3 34.6 25.9 87 1.7 SW 4 6 2 3 1006.8 - 0.6
28/08:00am 27.1 34.2 26.0 94 0.8 CALM 0 0 0 0 1006.4 - 0.6
28/07:30am 25.8 32.6 25.6 99 0.1 CALM 0 0 0 0 1006.0 - 0.6
28/07:11am 25.1 31.5 24.9 99 0.1 CALM 0 0 0 0 1005.6 - 0.6
28/07:00am 24.9 31.1 24.6 98 0.2 CALM 0 0 0 0 1005.5 - 0.6
28/06:55am 24.9 31.1 24.6 98 0.2 CALM 0 0 0 0 1005.5 - 0.6
28/06:30am 24.8 30.9 24.5 98 0.2 CALM 0 0 0 0 1005.3 - 0.6
28/06:24am 24.7 30.8 24.4 98 0.2 CALM 0 0 0 0 1005.3 - 0.6
28/06:00am 24.9 31.1 24.6 98 0.2 CALM 0 0 0 0 1005.1 - 0.6
28/05:30am 25.0 31.3 24.7 98 0.2 CALM 0 0 0 0 1004.5 - 0.6
28/05:06am 25.2 31.6 24.9 98 0.2 CALM 0 0 0 0 1004.4 - 0.6
28/05:03am 25.2 31.6 24.9 98 0.2 CALM 0 0 0 0 1004.4 - 0.6
28/05:00am 25.4 31.9 25.1 98 0.2 CALM 0 0 0 0 1004.4 - 0.6
28/04:38am 25.3 31.6 24.8 97 0.3 CALM 0 0 0 0 1004.4 - 0.6
28/04:30am 25.2 31.5 24.7 97 0.3 CALM 0 0 0 0 1004.5 - 0.6
28/04:00am 25.5 32.0 25.0 97 0.3 CALM 0 0 0 0 1004.6 - 0.6
28/03:30am 25.8 32.4 25.3 97 0.4 CALM 0 0 0 0 1004.6 - 0.6
28/03:00am 26.1 32.6 25.1 94 0.7 CALM 0 2 0 1 1004.8 - 0.6
28/02:30am 26.6 32.4 25.2 92 1.0 WSW 4 6 2 3 1004.7 - 0.6
28/02:00am 26.4 31.8 25.2 93 0.8 W 6 7 3 4 1004.9 - 0.6
28/01:30am 26.5 31.9 25.1 92 1.0 W 6 7 3 4 1005.2 - 0.6
28/01:00am 26.7 32.2 25.3 92 1.0 WSW 6 7 3 4 1005.6 - 0.6
28/12:30am 26.5 32.3 25.1 92 1.0 W 4 6 2 3 1006.0 - 0.6
28/12:00am 26.4 31.5 25.0 92 1.0 W 7 9 4 5 1006.3 - 0.6
 
Date/Time
CST
Temp
°C
App
Temp
°C
Dew
Point
°C
Rel
Hum
%
Delta-T
°C
Wind Press
QNH
hPa
Press
MSL
hPa
Rain since
9am
mm
Dir  Spd
km/h
Gust
km/h
Spd
kts
Gust
kts
27/11:30pm 26.5 32.1 24.9 91 1.1 WSW 4 6 2 3 1006.8 - 0.6
27/11:00pm 25.9 32.5 25.2 96 0.5 CALM 0 4 0 2 1007.0 - 0.6
27/10:30pm 26.0 31.6 24.8 93 0.8 WNW 4 6 2 3 1006.9 - 0.6
27/10:00pm 26.2 32.8 25.2 94 0.7 CALM 0 0 0 0 1006.8 - 0.6
27/09:30pm 26.3 32.8 25.1 93 0.8 CALM 0 0 0 0 1006.7 - 0.6
27/09:00pm 26.6 32.3 25.0 91 1.1 NW 4 6 2 3 1006.3 - 0.6
27/08:30pm 26.7 32.1 25.1 91 1.1 WNW 6 7 3 4 1006.1 - 0.6
27/08:00pm 27.0 32.1 25.0 89 1.4 WNW 7 13 4 7 1005.9 - 0.6
27/07:30pm 27.1 32.6 25.3 90 1.3 WNW 6 9 3 5 1005.9 - 0.6
27/07:00pm 27.6 32.6 25.4 88 1.5 NNW 9 13 5 7 1005.7 - 0.6
27/06:30pm 27.8 34.6 25.6 88 1.6 CALM 0 7 0 4 1005.6 - 0.6
27/06:00pm 27.6 33.7 26.2 92 1.0 W 6 7 3 4 1005.5 - 0.6
27/05:30pm 27.2 33.1 25.4 90 1.3 NW 4 6 2 3 1005.0 - 0.6
27/05:00pm 26.4 31.8 25.5 95 0.6 SW 7 11 4 6 1004.8 - 0.6
27/04:30pm 26.0 30.1 24.6 92 1.0 ESE 11 19 6 10 1004.8 - 0.2
27/04:00pm 27.8 30.7 22.5 73 3.6 SSW 11 20 6 11 1004.6 - 0.0
27/03:30pm 32.0 36.2 24.8 65 5.1 NNW 11 19 6 10 1004.5 - 0.0
27/03:00pm 33.0 37.7 25.5 64 5.4 NNW 11 19 6 10 1004.8 - 0.0
27/02:30pm 31.4 35.8 24.5 67 4.8 NNW 9 17 5 9 1005.1 - 0.0
27/02:00pm 31.6 35.7 24.0 64 5.3 NW 9 15 5 8 1005.8 - 0.0
27/01:30pm 31.8 36.3 23.9 63 5.5 NW 7 13 4 7 1006.3 - 0.0
27/01:00pm 32.5 36.4 24.3 62 5.7 WNW 11 17 6 9 1006.8 - 0.0
27/12:30pm 31.6 36.0 24.5 66 5.0 NW 9 20 5 11 1007.3 - 0.0
27/12:00pm 32.0 35.9 23.0 59 6.2 NNE 7 11 4 6 1007.7 - 0.0
27/11:30am 32.0 36.8 24.1 63 5.5 NW 6 9 3 5 1008.1 - 0.0
27/11:00am 31.6 37.0 24.5 66 5.0 NE 4 6 2 3 1008.3 - 0.0
27/10:30am 30.6 35.6 23.8 67 4.7 NE 4 6 2 3 1008.6 - 0.0
27/10:00am 30.1 36.0 24.7 73 3.8 S 2 7 1 4 1008.7 - 0.0
27/09:30am 28.8 34.2 23.9 75 3.4 ENE 2 6 1 3 1009.1 - 0.0
27/09:00am 28.6 33.8 24.8 80 2.7 E 6 7 3 4 1009.0 - 5.2
27/08:30am 27.8 33.4 25.4 87 1.7 ESE 6 9 3 5 1008.9 - 5.2
27/08:00am 27.0 32.6 25.4 91 1.1 E 6 6 3 3 1008.7 - 5.2
27/07:30am 25.5 31.1 24.8 96 0.5 E 4 6 2 3 1008.2 - 5.2
27/07:00am 24.4 30.0 24.2 99 0.1 E 2 4 1 2 1008.0 - 5.2
27/06:30am 24.1 29.1 23.8 98 0.2 E 4 6 2 3 1007.9 - 5.2
27/06:00am 24.0 29.7 23.7 98 0.2 CALM 0 0 0 0 1007.7 - 5.2
27/05:30am 24.0 29.7 23.7 98 0.2 CALM 0 0 0 0 1007.5 - 5.2
27/05:00am 24.0 29.7 23.7 98 0.2 CALM 0 0 0 0 1007.3 - 5.0
27/04:30am 24.3 30.1 24.0 98 0.2 CALM 0 0 0 0 1007.0 - 5.0
27/04:00am 24.3 30.1 24.0 98 0.2 CALM 0 0 0 0 1007.0 - 5.0
27/03:30am 24.4 30.3 24.1 98 0.2 CALM 0 0 0 0 1006.9 - 5.0
27/03:00am 24.4 30.2 23.9 97 0.3 CALM 0 4 0 2 1007.2 - 5.0
27/02:30am 24.4 30.2 23.9 97 0.3 CALM 0 0 0 0 1007.3 - 5.0
27/02:00am 24.6 30.4 23.9 96 0.5 CALM 0 0 0 0 1007.2 - 5.0
27/01:30am 24.8 30.8 24.3 97 0.3 CALM 0 4 0 2 1007.4 - 5.0
27/01:00am 24.9 31.0 24.4 97 0.3 CALM 0 4 0 2 1007.5 - 5.0
27/12:30am 24.9 29.8 24.4 97 0.3 SE 6 7 3 4 1007.6 - 5.0
27/12:00am 24.9 30.6 24.4 97 0.3 ESE 2 4 1 2 1007.7 - 5.0
 
Date/Time
CST
Temp
°C
App
Temp
°C
Dew
Point
°C
Rel
Hum
%
Delta-T
°C
Wind Press
QNH
hPa
Press
MSL
hPa
Rain since
9am
mm
Dir  Spd
km/h
Gust
km/h
Spd
kts
Gust
kts
26/11:30pm 24.9 30.5 24.2 96 0.5 SSE 2 6 1 3 1007.8 - 5.0
26/11:00pm 25.0 30.4 24.5 97 0.3 S 4 6 2 3 1007.8 - 5.0
26/10:30pm 25.0 31.3 24.7 98 0.2 CALM 0 0 0 0 1008.0 - 5.0
26/10:00pm 25.1 31.3 24.6 97 0.3 CALM 0 0 0 0 1007.9 - 5.0
26/09:30pm 25.2 31.5 24.7 97 0.3 CALM 0 0 0 0 1007.7 - 5.0
26/09:00pm 25.4 31.8 24.9 97 0.3 CALM 0 2 0 1 1007.5 - 5.0
26/08:30pm 25.9 32.6 25.4 97 0.4 CALM 0 0 0 0 1007.8 - 5.0
26/08:00pm 25.9 32.6 25.4 97 0.4 CALM 0 0 0 0 1007.5 - 5.0
26/07:30pm 26.2 33.0 25.5 96 0.5 CALM 0 0 0 0 1006.9 - 5.0
26/07:00pm 26.4 33.1 25.4 94 0.7 CALM 0 2 0 1 1007.2 - 5.0
26/06:30pm 26.6 33.3 25.4 93 0.8 CALM 0 0 0 0 1007.3 - 5.0
26/06:00pm 26.6 33.2 25.2 92 1.0 CALM 0 2 0 1 1007.3 - 5.0
26/05:30pm 27.0 31.7 25.0 89 1.4 N 9 15 5 8 1007.0 - 4.6
26/05:00pm 29.6 33.5 24.9 76 3.3 N 13 20 7 11 1006.8 - 4.2
26/04:30pm 30.0 35.3 24.9 74 3.6 NNW 6 11 3 6 1006.4 - 4.2
26/04:00pm 29.6 34.8 24.2 72 3.8 N 4 7 2 4 1006.8 - 4.2
26/03:30pm 29.0 33.8 24.1 75 3.4 N 6 9 3 5 1006.6 - 4.2
26/03:00pm 28.8 34.1 25.0 80 2.7 NNE 6 7 3 4 1006.6 - 4.2
26/02:30pm 26.9 32.0 24.7 88 1.5 ENE 6 7 3 4 1006.9 - 4.2
26/02:00pm 25.8 30.9 24.9 95 0.6 E 7 9 4 5 1007.7 - 4.2
26/01:30pm 25.6 30.5 24.6 94 0.7 ENE 7 15 4 8 1008.4 - 3.2
26/01:00pm 27.3 32.0 24.0 82 2.3 E 6 9 3 5 1008.7 - 3.0
26/12:30pm 26.1 30.8 24.3 90 1.2 ESE 7 13 4 7 1009.0 - 3.0
26/12:00pm 25.3 29.7 24.4 95 0.6 E 9 11 5 6 1009.4 - 3.0
26/11:32am 24.8 29.4 23.8 94 0.7 NE 6 11 3 6 1009.7 - 2.6
26/11:30am 24.8 29.3 23.9 95 0.6 NNE 7 11 4 6 1009.7 - 2.6
26/11:10am 24.7 27.0 23.5 93 0.8 N 17 30 9 16 1009.9 - 1.2
26/11:00am 26.5 28.4 23.4 83 2.1 N 19 28 10 15 1009.9 - 0.0
26/10:30am 30.2 35.4 25.7 77 3.2 ENE 9 15 5 8 1009.6 - 0.0
26/10:00am 29.6 35.5 26.2 82 2.4 ENE 7 11 4 6 1009.6 - 0.0
26/09:30am 28.0 33.5 25.6 87 1.7 E 7 11 4 6 1009.7 - 0.0
26/09:00am 27.0 32.4 25.4 91 1.1 ENE 7 11 4 6 1009.7 - 2.6
26/08:30am 26.2 31.3 25.0 93 0.8 ENE 7 11 4 6 1009.4 - 2.6
26/08:00am 25.7 30.7 24.8 95 0.6 E 7 9 4 5 1009.2 - 2.6
26/07:30am 25.3 30.4 24.6 96 0.5 SE 6 7 3 4 1009.0 - 2.6
26/07:00am 25.1 30.6 24.6 97 0.3 ESE 4 6 2 3 1008.6 - 2.6
26/06:30am 25.1 30.6 24.6 97 0.3 E 4 6 2 3 1008.1 - 2.6
26/06:00am 25.1 30.6 24.6 97 0.3 E 4 6 2 3 1007.7 - 2.6
26/05:30am 24.9 29.8 24.4 97 0.3 E 6 9 3 5 1007.4 - 2.6
26/05:00am 24.9 29.8 24.4 97 0.3 ESE 6 7 3 4 1007.3 - 2.6
26/04:30am 24.8 29.7 24.3 97 0.3 E 6 9 3 5 1006.8 - 2.6
26/04:00am 24.8 30.1 24.3 97 0.3 ESE 4 6 2 3 1006.7 - 2.6
26/03:30am 25.1 30.2 24.6 97 0.3 ESE 6 7 3 4 1006.6 - 2.6
26/03:00am 25.2 30.2 24.5 96 0.5 E 6 7 3 4 1006.7 - 2.6
26/02:30am 25.3 30.2 24.6 96 0.5 E 7 11 4 6 1006.7 - 2.6
26/02:00am 25.5 30.0 24.6 95 0.6 E 9 13 5 7 1006.8 - 2.6
26/01:30am 25.6 30.7 24.9 96 0.5 E 7 11 4 6 1006.9 - 2.6
26/01:00am 25.9 30.8 25.2 96 0.5 ENE 9 13 5 7 1007.0 - 2.6
26/12:30am 25.9 30.8 25.2 96 0.5 ENE 9 11 5 6 1007.1 - 2.6
26/12:00am 25.8 31.0 25.1 96 0.5 E 7 9 4 5 1007.3 - 2.6
 
Date/Time
CST
Temp
°C
App
Temp
°C
Dew
Point
°C
Rel
Hum
%
Delta-T
°C
Wind Press
QNH
hPa
Press
MSL
hPa
Rain since
9am
mm
Dir  Spd
km/h
Gust
km/h
Spd
kts
Gust
kts
25/11:30pm 25.7 31.0 25.0 96 0.5 E 6 7 3 4 1007.6 - 2.6
25/11:00pm 25.8 32.3 25.1 96 0.5 CALM 0 0 0 0 1007.6 - 2.6
25/10:30pm 26.0 32.5 25.1 95 0.6 CALM 0 2 0 1 1007.6 - 2.6
25/10:00pm 26.1 31.9 25.2 95 0.6 NE 4 6 2 3 1007.1 - 2.6
25/09:30pm 25.9 31.2 25.0 95 0.6 NE 6 6 3 3 1007.0 - 2.6
25/09:00pm 26.0 32.5 25.0 94 0.7 CALM 0 0 0 0 1007.0 - 2.6
25/08:30pm 26.5 33.0 25.1 92 1.0 CALM 0 2 0 1 1006.7 - 2.6
25/08:00pm 26.8 32.5 25.0 90 1.3 E 4 6 2 3 1006.5 - 2.6
25/07:30pm 27.5 32.2 24.9 86 1.8 ENE 9 15 5 8 1006.1 - 2.6
25/07:00pm 27.9 32.6 24.9 84 2.1 ENE 9 15 5 8 1006.0 - 2.6
25/06:30pm 28.4 32.5 24.6 80 2.7 NE 11 19 6 10 1005.6 - 2.6
25/06:00pm 28.7 32.9 24.7 79 2.8 NE 11 20 6 11 1005.0 - 2.6
25/05:30pm 29.4 33.1 24.5 75 3.4 NE 13 19 7 10 1004.7 - 2.6
25/05:00pm 29.4 34.4 26.0 82 2.4 NE 11 19 6 10 1004.4 - 2.6
25/04:30pm 28.8 33.0 25.4 82 2.4 NE 13 24 7 13 1004.3 - 2.6
25/04:00pm 29.4 32.5 25.4 79 2.8 NE 19 30 10 16 1004.4 - 2.6

Other formats

Comma delimited format used in spreadsheet applications
http://www.bom.gov.au/fwo/IDD60801/IDD60801.99179.axf

JavaScript Object Notation format (JSON) in row-major order
http://www.bom.gov.au/fwo/IDD60801/IDD60801.99179.json

Data quality

Most of these data are generated automatically and are frequently updated. Quality checks on data are not normally performed. It is possible for incorrect values to appear. Refer to information at About Latest Weather Observations and please check the disclaimer before using these data.